Time;durP1;ratioP1;P1;durP2;ratioP2;P2;SDS_P1;SDS_P2;PMS_P1;PMS_P2;Temp;Humidity;BMP_temperature;BMP_pressure;BME280_temperature;BME280_humidity;BME280_pressure;Samples;Min_cycle;Max_cycle;Signal;HPM_P1;HPM_P2
2022/09/23 00:00:18;;;;;;;11.52;6.95;;;20.90;72.70;;;;;;5092041;28;20076;-73
2022/09/23 00:02:47;;;;;;;11.15;7.00;;;20.90;72.80;;;;;;5091615;28;20078;-73
2022/09/23 00:05:13;;;;;;;14.30;7.45;;;20.90;72.80;;;;;;5091963;28;20024;-73
2022/09/23 00:07:39;;;;;;;13.13;7.10;;;20.90;72.80;;;;;;5091541;28;20016;-73
2022/09/23 00:10:05;;;;;;;10.23;7.22;;;20.90;72.80;;;;;;5090700;28;20069;-73
2022/09/23 00:12:31;;;;;;;11.88;7.00;;;20.90;72.90;;;;;;5090480;28;20038;-73
2022/09/23 00:14:57;;;;;;;10.95;6.78;;;20.90;72.90;;;;;;5089956;28;20028;-73
2022/09/23 00:17:23;;;;;;;12.38;6.63;;;20.90;73.00;;;;;;5071424;28;20124;-73
2022/09/23 00:19:48;;;;;;;10.38;6.63;;;20.90;72.90;;;;;;5071184;28;20021;-73
2022/09/23 00:22:15;;;;;;;10.38;6.90;;;20.90;72.90;;;;;;5071379;28;20025;-73
2022/09/23 00:24:40;;;;;;;9.38;6.53;;;20.90;72.90;;;;;;5110819;28;20032;-73
2022/09/23 00:27:06;;;;;;;9.70;7.05;;;20.90;72.90;;;;;;5110628;28;20064;-73
2022/09/23 00:29:32;;;;;;;9.13;6.35;;;20.80;72.90;;;;;;5111752;28;20104;-73
2022/09/23 00:31:57;;;;;;;10.43;6.43;;;20.90;73.00;;;;;;5111861;28;20433;-73
2022/09/23 00:34:23;;;;;;;8.85;6.40;;;20.80;73.00;;;;;;5111844;28;20433;-73
2022/09/23 00:36:49;;;;;;;9.60;6.53;;;20.80;73.00;;;;;;5110635;28;20399;-72
2022/09/23 00:39:14;;;;;;;10.85;6.53;;;20.90;73.10;;;;;;5111500;28;20037;-72
2022/09/23 00:41:40;;;;;;;11.50;6.88;;;20.80;73.10;;;;;;5111600;28;20016;-73
2022/09/23 00:44:58;;;;;;;9.73;6.50;;;20.80;73.10;;;;;;5110347;28;20031;-73
2022/09/23 00:47:43;;;;;;;11.02;6.63;;;20.80;73.00;;;;;;5091952;28;20032;-73
2022/09/23 00:50:35;;;;;;;11.17;7.00;;;20.80;73.00;;;;;;5063378;28;1340958;-73
2022/09/23 00:53:04;;;;;;;10.70;6.80;;;20.80;73.00;;;;;;5111250;28;20024;-73
2022/09/23 00:55:32;;;;;;;9.95;6.03;;;20.80;73.00;;;;;;5111476;28;20016;-73
2022/09/23 00:57:58;;;;;;;10.15;6.43;;;20.80;73.00;;;;;;5094042;28;20379;-73
2022/09/23 01:00:24;;;;;;;8.93;6.38;;;20.80;73.00;;;;;;5110948;28;20019;-73
2022/09/23 01:02:50;;;;;;;7.53;6.28;;;20.80;73.00;;;;;;5112280;28;20439;-73
2022/09/23 01:05:16;;;;;;;9.68;6.20;;;20.80;73.20;;;;;;5111231;28;20435;-73
2022/09/23 01:07:42;;;;;;;15.65;6.30;;;20.80;73.10;;;;;;5112353;28;20074;-73
2022/09/23 01:10:08;;;;;;;9.48;6.80;;;20.80;73.10;;;;;;5112324;28;20106;-73
2022/09/23 01:12:37;;;;;;;9.38;6.05;;;20.80;73.10;;;;;;5111162;28;20035;-73
2022/09/23 01:15:22;;;;;;;11.23;6.53;;;20.80;73.30;;;;;;5107733;28;20032;-73
2022/09/23 01:18:08;;;;;;;8.77;6.22;;;20.80;73.20;;;;;;5071526;28;20033;-73
2022/09/23 01:20:55;;;;;;;9.02;6.63;;;20.80;73.10;;;;;;5071482;28;20024;-73
2022/09/23 01:23:40;;;;;;;10.60;6.60;;;20.80;73.40;;;;;;5090627;28;20088;-73
2022/09/23 01:26:27;;;;;;;9.20;6.10;;;20.80;73.50;;;;;;5112274;28;20530;-73
2022/09/23 01:28:59;;;;;;;10.05;6.28;;;20.80;73.50;;;;;;5095972;28;20028;-73
2022/09/23 01:31:32;;;;;;;;;;;20.80;73.60;;;;;;5112807;28;20503;-73
2022/09/23 01:34:14;;;;;;;9.32;5.78;;;20.80;73.40;;;;;;5112011;28;19903;-73
2022/09/23 01:36:45;;;;;;;;;;;20.80;73.50;;;;;;5095070;28;20035;-73
2022/09/23 01:39:21;;;;;;;8.85;5.63;;;20.80;73.40;;;;;;5112961;28;20491;-73
2022/09/23 01:42:00;;;;;;;9.85;5.88;;;20.80;73.80;;;;;;5098870;28;20024;-73
2022/09/23 01:44:40;;;;;;;9.70;5.88;;;20.80;73.60;;;;;;5114480;28;20020;-73
2022/09/23 01:47:13;;;;;;;8.68;6.13;;;20.80;73.70;;;;;;5115739;28;20020;-73
2022/09/23 01:49:45;;;;;;;10.15;6.00;;;20.80;73.70;;;;;;5097762;28;20043;-73
2022/09/23 01:52:29;;;;;;;9.13;6.60;;;20.80;73.60;;;;;;5097856;28;20475;-73
2022/09/23 01:55:02;;;;;;;9.23;6.47;;;20.80;73.70;;;;;;5114319;28;20776;-73
2022/09/23 01:57:39;;;;;;;8.02;6.03;;;20.80;73.70;;;;;;5097955;28;20070;-73
2022/09/23 02:00:14;;;;;;;9.32;5.85;;;20.80;73.70;;;;;;5098124;28;20016;-73
2022/09/23 02:03:00;;;;;;;9.98;6.50;;;20.80;73.60;;;;;;5114042;28;20050;-73
2022/09/23 02:05:38;;;;;;;10.07;6.15;;;20.80;73.60;;;;;;5097420;28;20039;-73
2022/09/23 02:08:13;;;;;;;8.82;5.80;;;20.80;73.70;;;;;;5113918;28;20123;-73
2022/09/23 02:10:45;;;;;;;9.82;5.68;;;20.80;73.70;;;;;;5113886;28;20027;-73
2022/09/23 02:13:23;;;;;;;8.95;6.25;;;20.80;73.70;;;;;;5114826;28;20100;-73
2022/09/23 02:15:54;;;;;;;8.57;5.80;;;20.80;73.60;;;;;;5080288;28;20033;-73
2022/09/23 02:18:22;;;;;;;8.00;5.63;;;20.80;73.80;;;;;;5073086;28;20028;-73
2022/09/23 02:20:48;;;;;;;8.52;5.68;;;20.80;73.90;;;;;;5073132;28;20016;-73
2022/09/23 02:23:16;;;;;;;9.80;6.15;;;20.70;73.80;;;;;;5090783;28;20431;-73
2022/09/23 02:26:15;;;;;;;7.80;5.97;;;20.80;73.90;;;;;;5096882;28;20581;-72
2022/09/23 02:29:03;;;;;;;8.13;5.82;;;20.80;73.70;;;;;;5113793;28;20384;-72
2022/09/23 02:31:53;;;;;;;11.57;5.78;;;20.80;73.90;;;;;;5113665;28;20058;-73
2022/09/23 02:34:25;;;;;;;9.73;5.90;;;20.70;73.80;;;;;;5113657;28;20030;-73
2022/09/23 02:37:26;;;;;;;7.57;5.73;;;20.80;73.90;;;;;;5114550;28;20095;-73
2022/09/23 02:40:00;;;;;;;7.95;6.10;;;20.80;73.80;;;;;;5099854;28;20092;-73
2022/09/23 02:42:39;;;;;;;14.15;6.15;;;20.80;73.90;;;;;;5114501;28;20051;-73
2022/09/23 02:45:05;;;;;;;8.20;5.90;;;20.70;73.80;;;;;;5096840;28;20414;-73
2022/09/23 02:47:31;;;;;;;7.97;5.97;;;20.70;73.80;;;;;;5113304;28;20027;-73
2022/09/23 02:49:56;;;;;;;9.10;5.68;;;20.70;73.70;;;;;;5095030;28;20048;-73
2022/09/23 02:52:23;;;;;;;8.05;5.75;;;20.70;73.80;;;;;;5113111;28;20020;-73
2022/09/23 02:54:49;;;;;;;8.30;5.63;;;20.70;73.80;;;;;;5113916;28;20461;-73
2022/09/23 02:57:15;;;;;;;8.48;5.75;;;20.70;73.80;;;;;;5096074;28;20036;-73
2022/09/23 02:59:40;;;;;;;9.07;5.20;;;20.70;73.80;;;;;;5095845;28;20039;-73
2022/09/23 03:02:41;;;;;;;7.57;5.63;;;20.70;73.70;;;;;;5095943;28;20035;-73
2022/09/23 03:05:30;;;;;;;8.48;5.43;;;20.70;73.70;;;;;;5096286;28;20562;-73
2022/09/23 03:08:18;;;;;;;7.57;5.53;;;20.70;73.60;;;;;;5096323;28;20069;-73
2022/09/23 03:10:51;;;;;;;8.30;5.25;;;20.70;73.70;;;;;;5113879;28;20110;-73
2022/09/23 03:13:28;;;;;;;7.82;5.40;;;20.70;74.80;;;;;;5112584;28;20057;-72
2022/09/23 03:16:02;;;;;;;7.38;5.10;;;20.70;73.70;;;;;;5082611;28;20450;-73
2022/09/23 03:18:36;;;;;;;7.95;5.28;;;20.70;73.70;;;;;;5071853;28;20028;-73
2022/09/23 03:21:04;;;;;;;9.68;5.30;;;20.70;73.70;;;;;;5071753;28;20028;-73
2022/09/23 03:23:37;;;;;;;8.60;5.78;;;20.70;73.80;;;;;;5094081;28;20020;-73
2022/09/23 03:26:15;;;;;;;9.77;5.60;;;20.70;73.90;;;;;;5096416;28;20020;-73
2022/09/23 03:28:42;;;;;;;7.82;5.57;;;20.70;73.70;;;;;;5112595;28;20048;-73
2022/09/23 03:31:08;;;;;;;8.27;5.53;;;20.70;73.70;;;;;;5095351;28;20475;-73
2022/09/23 03:33:34;;;;;;;7.78;5.57;;;20.70;73.70;;;;;;5095614;28;20024;-73
2022/09/23 03:38:51;;;;;;;9.65;5.50;;;20.70;73.80;;;;;;5098315;28;20072;-73
2022/09/23 03:41:28;;;;;;;7.30;5.40;;;20.70;73.80;;;;;;5095341;28;20015;-73
2022/09/23 03:43:57;;;;;;;9.23;5.38;;;20.70;73.80;;;;;;5096383;28;20038;-73
2022/09/23 03:46:25;;;;;;;9.55;5.55;;;20.70;73.80;;;;;;5112180;28;20047;-73
2022/09/23 03:48:51;;;;;;;8.25;5.13;;;20.70;73.80;;;;;;5112079;28;20030;-73
2022/09/23 03:51:21;;;;;;;8.27;5.57;;;20.70;73.80;;;;;;5111649;28;20048;-73
2022/09/23 03:53:47;;;;;;;6.35;5.07;;;20.60;73.80;;;;;;5111750;28;20053;-73
2022/09/23 03:56:13;;;;;;;8.50;5.40;;;20.70;73.90;;;;;;5111933;28;20486;-73
2022/09/23 03:58:39;;;;;;;7.18;5.47;;;20.70;73.90;;;;;;5113067;28;20031;-73
2022/09/23 04:01:05;;;;;;;6.10;5.00;;;20.70;74.00;;;;;;5111657;28;20027;-73
2022/09/23 04:03:30;;;;;;;6.80;5.30;;;20.70;74.00;;;;;;5111918;28;20020;-73
2022/09/23 04:05:56;;;;;;;6.88;4.78;;;20.70;74.00;;;;;;5112808;28;20092;-72
2022/09/23 04:08:21;;;;;;;6.00;4.70;;;20.70;74.10;;;;;;5112599;28;20027;-73
2022/09/23 04:10:48;;;;;;;7.35;5.30;;;20.70;74.20;;;;;;5112918;28;20034;-72
2022/09/23 04:13:13;;;;;;;7.72;4.75;;;20.70;74.20;;;;;;5111577;28;20016;-73
2022/09/23 04:15:39;;;;;;;6.43;4.82;;;20.70;74.20;;;;;;5098229;28;20408;-73
2022/09/23 04:18:05;;;;;;;8.15;5.20;;;20.70;74.20;;;;;;5072423;28;20032;-73
2022/09/23 04:20:30;;;;;;;5.95;4.50;;;20.70;74.20;;;;;;5071976;28;20021;-72
2022/09/23 04:22:56;;;;;;;6.55;4.82;;;20.70;74.20;;;;;;5092208;28;20031;-72
2022/09/23 04:25:22;;;;;;;7.00;5.20;;;20.70;74.30;;;;;;5112692;28;20015;-72
2022/09/23 04:27:47;;;;;;;6.30;4.57;;;20.70;74.20;;;;;;5101182;28;20032;-72
2022/09/23 04:30:13;;;;;;;7.65;4.72;;;20.70;74.20;;;;;;5091181;28;20028;-73
2022/09/23 04:32:39;;;;;;;6.60;4.70;;;20.70;74.20;;;;;;5090760;28;20030;-72
2022/09/23 04:35:05;;;;;;;6.72;4.75;;;20.70;74.20;;;;;;5092145;28;20035;-72
2022/09/23 04:37:31;;;;;;;6.65;5.15;;;20.70;74.20;;;;;;5092040;28;20074;-73
2022/09/23 04:39:56;;;;;;;8.60;4.93;;;20.70;74.20;;;;;;5092088;28;20028;-73
2022/09/23 04:42:22;;;;;;;6.22;4.70;;;20.70;74.30;;;;;;5092270;28;20050;-73
2022/09/23 04:44:48;;;;;;;5.10;4.38;;;20.70;74.30;;;;;;5091164;28;20020;-73
2022/09/23 04:47:14;;;;;;;5.90;4.72;;;20.70;74.30;;;;;;5092225;28;20024;-73
2022/09/23 04:49:39;;;;;;;8.70;5.15;;;20.70;74.30;;;;;;5092005;28;20055;-73
2022/09/23 04:52:05;;;;;;;6.03;4.85;;;20.70;74.20;;;;;;5090706;28;20032;-73
2022/09/23 04:54:31;;;;;;;5.53;4.15;;;20.70;74.20;;;;;;5092224;28;20055;-73
2022/09/23 04:56:57;;;;;;;6.55;4.72;;;20.70;74.20;;;;;;5090900;28;20028;-73
2022/09/23 04:59:23;;;;;;;6.80;4.93;;;20.70;74.40;;;;;;5090892;28;20039;-73
2022/09/23 05:01:50;;;;;;;5.57;4.13;;;20.70;74.30;;;;;;5090923;28;20020;-73
2022/09/23 05:04:16;;;;;;;6.93;4.65;;;20.60;74.40;;;;;;5091888;28;20040;-73
2022/09/23 05:06:44;;;;;;;5.13;4.30;;;20.70;74.30;;;;;;5090819;28;20425;-73
2022/09/23 05:09:14;;;;;;;7.35;4.40;;;20.60;74.10;;;;;;5090782;28;20028;-73
2022/09/23 05:11:39;;;;;;;6.97;4.63;;;20.70;74.20;;;;;;5090907;28;20019;-73
2022/09/23 05:14:05;;;;;;;5.63;4.32;;;20.70;74.20;;;;;;5094031;28;20020;-73
2022/09/23 05:16:31;;;;;;;5.82;4.40;;;20.70;74.00;;;;;;5081206;28;20116;-73
2022/09/23 05:18:56;;;;;;;4.80;4.30;;;20.70;74.10;;;;;;5075568;28;20025;-73
2022/09/23 05:21:23;;;;;;;6.25;4.50;;;20.70;74.10;;;;;;5075069;28;20020;-73
2022/09/23 05:23:52;;;;;;;8.95;4.68;;;20.70;74.20;;;;;;5101845;28;20023;-73
2022/09/23 05:26:17;;;;;;;6.63;4.40;;;20.60;74.10;;;;;;5114629;28;20069;-73
2022/09/23 05:28:43;;;;;;;7.20;3.90;;;20.60;74.20;;;;;;5116186;28;20024;-73
2022/09/23 05:31:13;;;;;;;8.25;4.38;;;20.60;74.20;;;;;;5115717;28;20062;-73
2022/09/23 05:33:39;;;;;;;6.80;4.50;;;20.60;74.10;;;;;;5114735;28;20372;-73
2022/09/23 05:36:05;;;;;;;6.25;4.40;;;20.60;74.20;;;;;;5097548;28;20300;-73
2022/09/23 05:38:31;;;;;;;5.22;4.43;;;20.60;74.10;;;;;;5115440;28;20466;-73
2022/09/23 05:41:02;;;;;;;6.13;4.72;;;20.60;74.10;;;;;;5097707;28;20068;-73
2022/09/23 05:43:27;;;;;;;7.35;4.68;;;20.60;74.10;;;;;;5097686;28;20069;-73
2022/09/23 05:46:04;;;;;;;6.72;4.65;;;20.60;74.20;;;;;;5097506;28;20015;-73
2022/09/23 05:48:30;;;;;;;4.47;4.07;;;20.60;74.10;;;;;;5114054;28;20551;-73
2022/09/23 05:50:56;;;;;;;5.38;4.30;;;20.60;74.10;;;;;;5097294;28;20124;-73
2022/09/23 05:53:21;;;;;;;5.07;4.00;;;20.60;74.10;;;;;;5115489;28;20112;-73
2022/09/23 05:55:47;;;;;;;6.30;4.55;;;20.60;74.10;;;;;;5114311;28;20023;-73
2022/09/23 05:58:12;;;;;;;7.22;3.63;;;20.60;74.10;;;;;;5115252;28;20034;-73
2022/09/23 06:00:42;;;;;;;7.13;3.97;;;20.60;74.20;;;;;;5114044;28;20035;-73
2022/09/23 06:03:14;;;;;;;5.75;4.28;;;20.60;74.00;;;;;;5115074;27;20039;-73
2022/09/23 06:05:40;;;;;;;6.95;4.05;;;20.60;73.90;;;;;;5114072;28;20060;-73
2022/09/23 06:08:06;;;;;;;6.55;4.07;;;20.60;74.00;;;;;;5115052;28;20110;-73
2022/09/23 06:10:36;;;;;;;5.72;4.53;;;20.60;73.80;;;;;;5096993;28;20030;-74
2022/09/23 06:13:02;;;;;;;5.97;4.20;;;20.60;74.00;;;;;;5113935;28;20024;-73
2022/09/23 06:15:27;;;;;;;6.72;3.83;;;20.60;74.00;;;;;;5103609;28;20025;-73
2022/09/23 06:17:53;;;;;;;5.63;4.20;;;20.60;74.10;;;;;;5074155;28;20036;-73
2022/09/23 06:20:19;;;;;;;4.60;3.97;;;20.60;74.10;;;;;;5074105;28;20488;-73
2022/09/23 06:22:44;;;;;;;6.40;4.07;;;20.60;74.10;;;;;;5083809;28;20027;-73
2022/09/23 06:25:11;;;;;;;5.45;3.90;;;20.60;74.10;;;;;;5114545;28;20023;-73
2022/09/23 06:27:36;;;;;;;4.55;3.35;;;20.60;74.10;;;;;;5114900;28;20020;-73
2022/09/23 06:30:03;;;;;;;4.80;3.67;;;20.60;74.00;;;;;;5113739;28;20022;-73
2022/09/23 06:32:28;;;;;;;4.85;3.72;;;20.60;73.90;;;;;;5114350;28;20024;-73
2022/09/23 06:34:54;;;;;;;5.10;3.92;;;20.60;73.90;;;;;;5113900;28;20383;-73
2022/09/23 06:37:20;;;;;;;4.80;3.90;;;20.60;74.10;;;;;;5114415;28;20510;-73
2022/09/23 06:39:45;;;;;;;5.72;3.95;;;20.60;74.40;;;;;;5114536;28;20024;-73
2022/09/23 06:42:11;;;;;;;4.68;3.78;;;20.60;74.40;;;;;;5114512;28;20111;-73
2022/09/23 06:44:36;;;;;;;5.03;4.03;;;20.60;74.40;;;;;;5114443;28;20027;-73
2022/09/23 06:47:02;;;;;;;5.93;4.15;;;20.60;74.40;;;;;;5114274;28;20024;-73
2022/09/23 06:49:28;;;;;;;6.60;3.95;;;20.60;74.60;;;;;;5114180;28;20043;-73
2022/09/23 06:51:55;;;;;;;8.43;3.58;;;20.60;74.40;;;;;;5114269;28;20080;-73
2022/09/23 06:54:20;;;;;;;5.13;3.75;;;20.60;74.20;;;;;;5114348;28;20022;-73
2022/09/23 06:56:46;;;;;;;7.55;3.65;;;20.60;74.20;;;;;;5113196;28;20110;-73
2022/09/23 06:59:15;;;;;;;5.65;3.80;;;20.60;74.20;;;;;;5113956;28;20099;-73
2022/09/23 07:01:41;;;;;;;5.53;3.67;;;20.60;74.30;;;;;;5096360;28;20026;-72
2022/09/23 07:04:09;;;;;;;4.30;3.55;;;20.60;74.30;;;;;;5096103;28;20039;-73
2022/09/23 07:06:35;;;;;;;5.45;3.67;;;20.60;74.30;;;;;;5113963;28;20030;-73
2022/09/23 07:09:00;;;;;;;9.98;3.38;;;20.60;74.30;;;;;;5114106;28;20019;-73
2022/09/23 07:11:26;;;;;;;3.92;3.53;;;20.60;74.40;;;;;;5113860;28;20111;-73
2022/09/23 07:13:52;;;;;;;3.58;3.28;;;20.60;74.30;;;;;;5113828;28;20065;-73
2022/09/23 07:16:19;;;;;;;6.38;3.90;;;20.60;74.30;;;;;;5087035;28;20055;-73
2022/09/23 07:18:45;;;;;;;4.28;3.50;;;20.60;74.30;;;;;;5073209;28;20027;-73
2022/09/23 07:21:13;;;;;;;5.30;3.85;;;20.60;74.40;;;;;;5072996;28;20107;-73
2022/09/23 07:23:42;;;;;;;5.82;3.80;;;20.50;74.40;;;;;;5098014;28;20059;-73
2022/09/23 07:26:08;;;;;;;5.25;3.67;;;20.60;74.40;;;;;;5095964;28;20028;-73
2022/09/23 07:28:35;;;;;;;6.10;3.58;;;20.50;74.30;;;;;;5113595;28;20098;-73
2022/09/23 07:31:18;;;;;;;4.47;3.45;;;20.50;74.30;;;;;;5112243;28;20517;-73
2022/09/23 07:33:44;;;;;;;4.75;3.45;;;20.60;74.40;;;;;;5113512;28;20103;-73
2022/09/23 07:36:12;;;;;;;4.70;3.30;;;20.50;74.40;;;;;;5093952;28;20122;-73
2022/09/23 07:38:38;;;;;;;5.03;3.20;;;20.60;74.50;;;;;;5067629;28;20016;-73
2022/09/23 07:41:06;;;;;;;2.72;2.53;;;20.50;72.70;;;;;;5092088;28;20047;-73
2022/09/23 07:43:32;;;;;;;3.38;2.28;;;20.50;71.50;;;;;;5075703;28;20012;-72
2022/09/23 07:46:02;;;;;;;3.47;2.90;;;20.50;70.80;;;;;;5092022;28;20047;-73
2022/09/23 07:48:28;;;;;;;3.45;2.58;;;20.40;70.70;;;;;;5092140;28;20165;-73
2022/09/23 07:50:54;;;;;;;3.72;2.40;;;20.40;70.70;;;;;;5091809;28;20044;-73
2022/09/23 07:53:20;;;;;;;6.53;2.70;;;20.40;71.20;;;;;;5091944;28;20513;-73
2022/09/23 07:55:53;;;;;;;2.70;2.50;;;20.40;71.30;;;;;;5079606;28;20483;-74
2022/09/23 07:58:19;;;;;;;4.45;2.90;;;20.40;70.90;;;;;;5072953;28;20499;-77
2022/09/23 08:00:45;;;;;;;4.20;3.33;;;20.40;71.00;;;;;;5072855;28;20029;-75
2022/09/23 08:03:11;;;;;;;3.13;2.83;;;20.40;70.80;;;;;;5071696;28;20025;-74
2022/09/23 08:05:37;;;;;;;3.13;2.33;;;20.40;70.90;;;;;;5072664;28;20477;-77
2022/09/23 08:08:06;;;;;;;2.80;2.38;;;20.30;70.60;;;;;;5072994;28;20059;-75
2022/09/23 08:10:32;;;;;;;2.70;2.50;;;20.30;70.60;;;;;;5071478;28;20035;-73
2022/09/23 08:12:58;;;;;;;3.38;2.30;;;20.30;70.70;;;;;;5071568;28;20493;-73
2022/09/23 08:15:25;;;;;;;3.17;2.38;;;20.30;70.70;;;;;;5076114;28;20060;-74
2022/09/23 08:17:51;;;;;;;3.83;3.13;;;20.30;70.60;;;;;;5092909;28;20035;-74
2022/09/23 08:20:43;;;;;;;2.90;2.22;;;20.30;70.60;;;;;;5092847;28;20024;-74
2022/09/23 08:23:03;;;;;;;4.32;2.58;;;20.30;70.60;;;;;;5100023;28;20019;-74
2022/09/23 08:25:28;;;;;;;2.50;2.30;;;20.30;70.60;;;;;;5111831;28;20115;-74
2022/09/23 08:27:54;;;;;;;2.72;2.42;;;20.30;70.60;;;;;;5113016;28;20028;-76
2022/09/23 08:30:19;;;;;;;2.38;2.17;;;20.30;70.60;;;;;;5113127;28;20102;-73
2022/09/23 08:32:49;;;;;;;4.20;2.53;;;20.30;70.60;;;;;;5096753;28;20076;-74
2022/09/23 08:35:15;;;;;;;4.93;2.60;;;20.30;70.50;;;;;;5091354;28;20020;-75
2022/09/23 08:37:40;;;;;;;2.97;2.30;;;20.20;70.60;;;;;;5091384;28;20153;-74
2022/09/23 08:40:07;;;;;;;2.70;2.47;;;20.20;70.50;;;;;;5096848;28;20054;-72
2022/09/23 08:42:32;;;;;;;2.50;2.17;;;20.30;70.50;;;;;;5074358;28;20028;-72
2022/09/23 08:45:00;;;;;;;2.72;2.15;;;20.40;70.20;;;;;;5092776;28;20035;-72
2022/09/23 08:47:47;;;;;;;2.10;1.90;;;20.50;70.20;;;;;;5092971;28;20017;-72
2022/09/23 08:50:16;;;;;;;2.15;2.00;;;20.50;70.00;;;;;;5075436;28;20044;-72
2022/09/23 08:52:54;;;;;;;2.33;2.13;;;20.60;70.00;;;;;;5058922;28;20044;-72
2022/09/23 08:55:22;;;;;;;1.88;1.60;;;20.70;69.70;;;;;;5076533;28;20073;-72
2022/09/23 08:58:20;;;;;;;2.78;2.25;;;20.80;69.70;;;;;;5089364;28;20031;-72
2022/09/23 09:01:02;;;;;;;2.13;1.80;;;20.80;69.50;;;;;;5096950;28;20062;-72
2022/09/23 09:03:45;;;;;;;2.55;1.95;;;20.90;69.50;;;;;;5095159;28;20020;-72
2022/09/23 09:06:16;;;;;;;2.40;2.10;;;21.00;69.30;;;;;;5096605;28;20048;-72
2022/09/23 09:08:42;;;;;;;2.15;1.95;;;21.00;69.20;;;;;;5079127;28;20032;-72
2022/09/23 09:11:08;;;;;;;2.40;2.20;;;21.00;69.00;;;;;;5078498;28;20039;-72
2022/09/23 09:13:43;;;;;;;2.33;2.00;;;21.10;68.90;;;;;;5074881;28;20138;-72
2022/09/23 09:16:19;;;;;;;2.15;1.70;;;21.10;68.70;;;;;;5065801;28;20078;-70
2022/09/23 09:18:52;;;;;;;2.05;1.85;;;21.10;68.60;;;;;;5091733;28;20021;-71
2022/09/23 09:21:17;;;;;;;1.90;1.73;;;21.20;68.50;;;;;;5094215;28;20044;-71
2022/09/23 09:23:56;;;;;;;2.72;2.00;;;21.20;69.50;;;;;;5107975;28;20062;-71
2022/09/23 09:26:26;;;;;;;3.05;1.80;;;21.20;68.50;;;;;;5115188;28;20038;-71
2022/09/23 09:28:59;;;;;;;2.20;2.00;;;21.30;68.50;;;;;;5098971;28;20027;-70
2022/09/23 09:31:31;;;;;;;1.98;1.70;;;21.30;68.30;;;;;;5093280;28;20058;-70
2022/09/23 09:33:57;;;;;;;2.20;1.80;;;21.30;68.20;;;;;;5094842;28;20380;-71
2022/09/23 09:36:29;;;;;;;1.70;1.55;;;21.40;68.10;;;;;;5096214;28;20028;-71
2022/09/23 09:38:57;;;;;;;;;;;21.40;68.00;;;;;;5095163;28;20035;-71
2022/09/23 09:41:26;;;;;;;2.10;1.90;;;21.40;67.90;;;;;;5092410;28;19926;-71
2022/09/23 09:43:55;;;;;;;2.00;1.88;;;21.50;67.90;;;;;;5074365;28;20021;-72
2022/09/23 09:46:43;;;;;;;2.00;1.90;;;21.50;67.90;;;;;;5074574;28;20427;-72
2022/09/23 09:49:24;;;;;;;1.77;1.60;;;21.50;67.70;;;;;;5090775;28;20054;-72
2022/09/23 09:52:11;;;;;;;2.25;1.83;;;21.50;67.60;;;;;;5095655;28;20031;-72
2022/09/23 09:54:38;;;;;;;1.98;1.70;;;21.60;67.70;;;;;;5095616;28;20056;-72
2022/09/23 09:57:26;;;;;;;2.45;1.55;;;21.60;67.40;;;;;;5095426;28;20479;-72
2022/09/23 09:59:51;;;;;;;2.15;1.88;;;21.70;67.40;;;;;;5079360;28;20026;-72
2022/09/23 10:02:22;;;;;;;1.85;1.65;;;21.70;67.30;;;;;;5094329;28;20028;-72
2022/09/23 10:04:57;;;;;;;2.55;1.70;;;21.70;67.30;;;;;;5094193;28;20411;-72
2022/09/23 10:07:30;;;;;;;1.88;1.60;;;21.70;67.20;;;;;;5078001;28;20464;-72
2022/09/23 10:09:56;;;;;;;2.00;1.80;;;21.70;67.10;;;;;;5077115;28;20020;-72
2022/09/23 10:12:23;;;;;;;1.77;1.67;;;21.80;67.00;;;;;;5094331;28;20555;-72
2022/09/23 10:14:51;;;;;;;1.65;1.55;;;21.80;66.90;;;;;;5095144;28;20044;-72
2022/09/23 10:17:41;;;;;;;1.88;1.73;;;21.80;68.00;;;;;;5073870;28;20029;-72
2022/09/23 10:20:08;;;;;;;2.00;1.80;;;21.80;66.80;;;;;;5074145;28;20067;-72
2022/09/23 10:22:37;;;;;;;1.88;1.75;;;21.80;66.80;;;;;;5079810;28;20509;-72
2022/09/23 10:25:08;;;;;;;4.13;2.05;;;21.80;66.70;;;;;;5097568;28;20033;-72
2022/09/23 10:27:35;;;;;;;2.20;1.65;;;21.90;66.70;;;;;;5097705;28;20011;-72
2022/09/23 10:30:08;;;;;;;1.65;1.55;;;21.90;66.60;;;;;;5114097;28;20034;-72
2022/09/23 10:32:42;;;;;;;2.65;2.05;;;21.90;66.60;;;;;;5082636;28;20118;-71
2022/09/23 10:35:13;;;;;;;1.60;1.50;;;21.90;66.70;;;;;;5078252;28;20099;-71
2022/09/23 10:37:42;;;;;;;1.70;1.60;;;21.90;66.70;;;;;;5094889;28;20032;-70
2022/09/23 10:46:37;;;;;;;1.83;1.65;;;21.90;66.70;;;;;;5094093;28;20153;-70
2022/09/23 10:49:39;;;;;;;2.28;1.70;;;21.90;66.70;;;;;;5094555;28;20024;-71
2022/09/23 10:52:24;;;;;;;1.77;1.67;;;22.00;66.70;;;;;;5094631;28;20024;-71
2022/09/23 10:55:14;;;;;;;3.80;1.60;;;21.90;66.60;;;;;;5094480;28;20150;-71
2022/09/23 10:58:10;;;;;;;2.13;1.60;;;22.00;66.60;;;;;;5094459;28;20149;-71
2022/09/23 11:00:51;;;;;;;1.83;1.40;;;22.00;66.50;;;;;;5093192;28;20069;-71
2022/09/23 11:03:37;;;;;;;1.80;1.63;;;22.00;66.40;;;;;;5094179;28;20035;-71
2022/09/23 11:06:10;;;;;;;2.22;1.60;;;22.00;66.50;;;;;;5094511;28;20028;-71
2022/09/23 11:09:00;;;;;;;1.58;1.48;;;22.10;66.40;;;;;;5094094;28;20035;-72
2022/09/23 11:11:55;;;;;;;1.58;1.48;;;22.10;66.50;;;;;;5093426;28;20107;-72
2022/09/23 11:14:40;;;;;;;2.05;1.85;;;22.10;66.40;;;;;;5092968;28;20093;-72
2022/09/23 11:17:34;;;;;;;1.45;1.30;;;22.10;66.40;;;;;;5074798;28;20033;-72
2022/09/23 11:20:09;;;;;;;1.52;1.42;;;22.10;66.50;;;;;;5072701;28;20476;-72
2022/09/23 11:22:41;;;;;;;1.40;1.30;;;22.20;66.20;;;;;;5079102;28;20066;-72
2022/09/23 11:25:17;;;;;;;1.40;1.30;;;22.20;66.20;;;;;;5114320;28;20031;-72
2022/09/23 11:28:14;;;;;;;1.50;1.40;;;22.10;66.30;;;;;;5096060;28;20060;-69
2022/09/23 11:31:05;;;;;;;1.85;1.40;;;22.20;66.10;;;;;;5114283;28;20024;-78
2022/09/23 11:33:45;;;;;;;2.03;1.45;;;22.10;65.70;;;;;;5072662;28;20031;-75
2022/09/23 11:36:33;;;;;;;1.88;1.60;;;21.90;65.00;;;;;;5073384;28;20024;-76
2022/09/23 11:39:00;;;;;;;1.95;1.75;;;21.80;65.00;;;;;;5071875;28;20055;-75
2022/09/23 11:41:30;;;;;;;1.92;1.73;;;21.70;65.30;;;;;;5055451;28;20021;-75
2022/09/23 11:44:21;;;;;;;2.42;1.73;;;21.60;65.50;;;;;;5055300;28;20021;-76
2022/09/23 11:46:55;;;;;;;2.22;1.48;;;21.50;65.80;;;;;;5072062;28;20020;-76
2022/09/23 11:49:44;;;;;;;2.17;1.52;;;21.50;65.90;;;;;;5072732;28;20048;-76
2022/09/23 11:52:32;;;;;;;7.47;5.03;;;21.40;66.10;;;;;;5092019;28;20054;-76
2022/09/23 11:55:05;;;;;;;5.72;3.85;;;21.40;66.20;;;;;;5092234;28;20476;-76
2022/09/23 11:57:37;;;;;;;7.05;4.60;;;21.40;66.30;;;;;;5071363;28;20480;-75
2022/09/23 12:00:05;;;;;;;62.72;16.00;;;21.30;66.30;;;;;;5072824;28;20025;-75
2022/09/23 12:02:47;;;;;;;85.35;19.55;;;21.30;67.50;;;;;;5071560;28;20062;-75
2022/09/23 12:05:19;;;;;;;77.40;19.77;;;21.30;66.60;;;;;;5071737;28;20020;-76
2022/09/23 12:08:02;;;;;;;54.60;16.25;;;21.30;66.70;;;;;;5071542;28;20032;-75
2022/09/23 12:11:07;;;;;;;65.30;18.58;;;21.20;66.70;;;;;;5056648;28;20020;-78
2022/09/23 12:13:39;;;;;;;76.40;19.25;;;21.20;67.00;;;;;;5072711;28;20052;-78
2022/09/23 12:16:42;;;;;;;70.18;20.00;;;21.20;67.00;;;;;;5083499;28;20077;-78
2022/09/23 12:19:14;;;;;;;73.53;18.75;;;21.20;67.10;;;;;;5092898;28;20076;-73
2022/09/23 12:21:39;;;;;;;56.80;16.37;;;21.20;67.10;;;;;;5092607;28;20016;-74
2022/09/23 12:24:14;;;;;;;65.47;19.63;;;21.30;67.00;;;;;;5108783;28;20019;-72
2022/09/23 12:26:40;;;;;;;66.40;17.38;;;21.20;66.70;;;;;;5111763;28;20019;-73
2022/09/23 12:29:06;;;;;;;53.47;15.77;;;21.30;66.60;;;;;;5095162;28;20034;-72
2022/09/23 12:31:31;;;;;;;41.80;14.20;;;21.30;66.60;;;;;;5089131;28;20028;-72
2022/09/23 12:33:58;;;;;;;59.17;16.80;;;21.30;66.50;;;;;;5091228;28;20434;-72
2022/09/23 12:36:34;;;;;;;52.05;15.40;;;21.30;66.40;;;;;;5074765;28;20044;-72
2022/09/23 12:39:06;;;;;;;39.35;13.85;;;21.30;66.30;;;;;;5091368;28;20025;-71
2022/09/23 12:41:49;;;;;;;38.00;12.82;;;21.40;66.20;;;;;;5091410;28;20111;-71
2022/09/23 12:44:28;;;;;;;40.72;13.48;;;21.40;66.20;;;;;;5076252;28;20031;-71
2022/09/23 12:47:13;;;;;;;42.40;12.40;;;21.40;66.20;;;;;;5091642;28;20072;-71
2022/09/23 12:49:38;;;;;;;32.15;10.77;;;21.40;66.20;;;;;;5092440;28;20052;-71
2022/09/23 12:52:16;;;;;;;39.92;12.95;;;21.40;66.10;;;;;;5074569;28;20448;-71
2022/09/23 12:54:43;;;;;;;32.17;12.10;;;21.40;66.10;;;;;;5092660;28;20028;-71
2022/09/23 12:57:08;;;;;;;24.83;9.63;;;21.50;66.00;;;;;;5091266;28;20084;-71
2022/09/23 12:59:56;;;;;;;28.67;10.52;;;21.50;66.00;;;;;;5092406;28;20516;-71
2022/09/23 13:02:36;;;;;;;31.35;9.35;;;21.50;66.00;;;;;;5091331;28;20411;-71
2022/09/23 13:07:54;;;;;;;28.67;9.85;;;21.50;66.00;;;;;;5092378;28;20030;-72
2022/09/23 13:10:57;;;;;;;25.50;8.43;;;21.50;66.00;;;;;;5071080;28;20377;-71
2022/09/23 13:13:39;;;;;;;31.08;9.45;;;21.50;66.00;;;;;;4997295;28;20506;-71
2022/09/23 13:16:13;;;;;;;34.20;11.03;;;21.50;65.90;;;;;;5003466;28;20034;-72
2022/09/23 13:18:58;;;;;;;24.27;8.90;;;21.50;65.90;;;;;;5010037;28;20137;-71
2022/09/23 13:21:41;;;;;;;25.48;8.55;;;21.50;65.80;;;;;;5015937;28;20482;-72